sensor_id;sensor_type;location;lat;lon;timestamp;P1;durP1;ratioP1;P2;durP2;ratioP2
73650;SDS011;61944;52.538;6.108;2022-12-07T06:05:17;6.80;;;1.90;;
73650;SDS011;61944;52.538;6.108;2022-12-07T06:07:43;3.40;;;1.60;;
73650;SDS011;61944;52.538;6.108;2022-12-07T06:10:08;7.72;;;1.80;;
73650;SDS011;61944;52.538;6.108;2022-12-07T06:12:34;6.93;;;2.30;;
73650;SDS011;61944;52.538;6.108;2022-12-07T06:14:59;5.03;;;1.38;;
73650;SDS011;61944;52.538;6.108;2022-12-07T06:17:24;6.45;;;1.85;;
73650;SDS011;61944;52.538;6.108;2022-12-07T06:19:50;10.30;;;1.40;;
73650;SDS011;61944;52.538;6.108;2022-12-07T06:22:16;13.70;;;1.50;;
73650;SDS011;61944;52.538;6.108;2022-12-07T06:24:41;1.92;;;0.98;;
73650;SDS011;61944;52.538;6.108;2022-12-07T06:27:07;7.22;;;1.95;;
73650;SDS011;61944;52.538;6.108;2022-12-07T06:29:32;5.53;;;2.45;;
73650;SDS011;61944;52.538;6.108;2022-12-07T06:31:58;7.05;;;1.08;;
73650;SDS011;61944;52.538;6.108;2022-12-07T06:34:23;8.38;;;1.50;;
73650;SDS011;61944;52.538;6.108;2022-12-07T06:36:50;4.35;;;1.90;;
73650;SDS011;61944;52.538;6.108;2022-12-07T06:39:18;5.47;;;1.40;;
73650;SDS011;61944;52.538;6.108;2022-12-07T06:41:44;6.22;;;1.20;;
73650;SDS011;61944;52.538;6.108;2022-12-07T06:44:10;6.00;;;1.10;;
73650;SDS011;61944;52.538;6.108;2022-12-07T06:46:36;7.20;;;1.20;;
73650;SDS011;61944;52.538;6.108;2022-12-07T06:49:02;5.97;;;1.30;;
73650;SDS011;61944;52.538;6.108;2022-12-07T06:51:28;16.02;;;1.80;;
73650;SDS011;61944;52.538;6.108;2022-12-07T06:53:53;7.32;;;0.93;;
73650;SDS011;61944;52.538;6.108;2022-12-07T06:56:19;4.85;;;0.95;;
73650;SDS011;61944;52.538;6.108;2022-12-07T06:58:44;5.18;;;1.13;;
73650;SDS011;61944;52.538;6.108;2022-12-07T07:01:11;3.88;;;0.95;;
73650;SDS011;61944;52.538;6.108;2022-12-07T07:03:41;7.47;;;1.52;;
73650;SDS011;61944;52.538;6.108;2022-12-07T07:06:07;6.13;;;1.35;;
73650;SDS011;61944;52.538;6.108;2022-12-07T07:08:33;9.63;;;1.33;;
73650;SDS011;61944;52.538;6.108;2022-12-07T07:11:00;6.40;;;1.40;;
73650;SDS011;61944;52.538;6.108;2022-12-07T07:13:26;4.82;;;1.00;;
73650;SDS011;61944;52.538;6.108;2022-12-07T07:15:54;8.25;;;1.63;;
73650;SDS011;61944;52.538;6.108;2022-12-07T07:18:20;7.82;;;1.45;;
73650;SDS011;61944;52.538;6.108;2022-12-07T07:20:45;3.90;;;1.30;;
73650;SDS011;61944;52.538;6.108;2022-12-07T07:23:11;3.20;;;1.33;;
73650;SDS011;61944;52.538;6.108;2022-12-07T07:25:36;8.52;;;1.98;;
73650;SDS011;61944;52.538;6.108;2022-12-07T07:28:02;6.03;;;1.35;;
73650;SDS011;61944;52.538;6.108;2022-12-07T07:30:28;9.30;;;2.70;;
73650;SDS011;61944;52.538;6.108;2022-12-07T07:33:00;6.20;;;1.63;;
73650;SDS011;61944;52.538;6.108;2022-12-07T07:35:27;5.93;;;2.28;;
73650;SDS011;61944;52.538;6.108;2022-12-07T07:37:54;5.25;;;1.20;;
73650;SDS011;61944;52.538;6.108;2022-12-07T07:40:20;5.35;;;1.40;;
73650;SDS011;61944;52.538;6.108;2022-12-07T07:42:47;4.03;;;1.30;;
73650;SDS011;61944;52.538;6.108;2022-12-07T07:45:13;4.97;;;1.00;;
73650;SDS011;61944;52.538;6.108;2022-12-07T07:47:39;4.43;;;1.20;;
73650;SDS011;61944;52.538;6.108;2022-12-07T07:50:04;7.32;;;1.20;;
73650;SDS011;61944;52.538;6.108;2022-12-07T07:52:30;3.95;;;1.05;;
73650;SDS011;61944;52.538;6.108;2022-12-07T07:54:56;8.38;;;1.55;;
73650;SDS011;61944;52.538;6.108;2022-12-07T07:57:21;9.50;;;1.30;;
73650;SDS011;61944;52.538;6.108;2022-12-07T07:59:46;5.97;;;1.20;;
73650;SDS011;61944;52.538;6.108;2022-12-07T08:02:13;7.05;;;1.95;;
73650;SDS011;61944;52.538;6.108;2022-12-07T08:04:40;7.15;;;1.58;;
73650;SDS011;61944;52.538;6.108;2022-12-07T08:07:05;4.65;;;1.38;;
73650;SDS011;61944;52.538;6.108;2022-12-07T08:09:31;5.13;;;1.75;;
73650;SDS011;61944;52.538;6.108;2022-12-07T08:11:57;7.57;;;1.95;;
73650;SDS011;61944;52.538;6.108;2022-12-07T08:14:22;3.05;;;1.25;;
73650;SDS011;61944;52.538;6.108;2022-12-07T08:16:47;2.83;;;1.20;;
73650;SDS011;61944;52.538;6.108;2022-12-07T08:19:13;5.95;;;1.88;;
73650;SDS011;61944;52.538;6.108;2022-12-07T08:21:38;7.82;;;1.55;;
73650;SDS011;61944;52.538;6.108;2022-12-07T08:24:04;5.47;;;1.92;;
73650;SDS011;61944;52.538;6.108;2022-12-07T08:26:29;6.97;;;1.50;;
73650;SDS011;61944;52.538;6.108;2022-12-07T08:28:54;5.95;;;1.42;;
73650;SDS011;61944;52.538;6.108;2022-12-07T08:31:20;14.73;;;2.20;;
73650;SDS011;61944;52.538;6.108;2022-12-07T08:33:46;7.65;;;2.55;;
73650;SDS011;61944;52.538;6.108;2022-12-07T08:36:12;6.10;;;1.85;;
73650;SDS011;61944;52.538;6.108;2022-12-07T08:38:38;6.95;;;1.65;;
73650;SDS011;61944;52.538;6.108;2022-12-07T08:41:05;9.73;;;2.15;;
73650;SDS011;61944;52.538;6.108;2022-12-07T08:43:31;5.20;;;1.88;;
73650;SDS011;61944;52.538;6.108;2022-12-07T08:48:43;6.63;;;1.65;;
73650;SDS011;61944;52.538;6.108;2022-12-07T08:51:13;6.75;;;1.52;;
73650;SDS011;61944;52.538;6.108;2022-12-07T08:53:38;9.18;;;2.63;;
73650;SDS011;61944;52.538;6.108;2022-12-07T08:56:04;6.25;;;3.45;;
73650;SDS011;61944;52.538;6.108;2022-12-07T08:58:31;6.22;;;1.48;;
73650;SDS011;61944;52.538;6.108;2022-12-07T09:00:58;6.28;;;2.30;;
73650;SDS011;61944;52.538;6.108;2022-12-07T09:03:23;7.03;;;1.60;;
73650;SDS011;61944;52.538;6.108;2022-12-07T09:05:49;4.85;;;2.00;;
73650;SDS011;61944;52.538;6.108;2022-12-07T09:08:14;7.03;;;2.10;;
73650;SDS011;61944;52.538;6.108;2022-12-07T09:10:40;7.68;;;1.55;;
73650;SDS011;61944;52.538;6.108;2022-12-07T09:13:05;7.95;;;1.90;;
73650;SDS011;61944;52.538;6.108;2022-12-07T09:15:31;3.90;;;1.90;;
73650;SDS011;61944;52.538;6.108;2022-12-07T09:17:56;10.43;;;1.60;;
73650;SDS011;61944;52.538;6.108;2022-12-07T09:20:22;7.88;;;1.98;;
73650;SDS011;61944;52.538;6.108;2022-12-07T09:22:47;5.28;;;1.80;;
73650;SDS011;61944;52.538;6.108;2022-12-07T09:25:13;11.98;;;2.42;;
73650;SDS011;61944;52.538;6.108;2022-12-07T09:27:38;6.80;;;1.85;;
73650;SDS011;61944;52.538;6.108;2022-12-07T09:30:04;10.05;;;1.95;;
73650;SDS011;61944;52.538;6.108;2022-12-07T09:32:30;8.32;;;2.22;;
73650;SDS011;61944;52.538;6.108;2022-12-07T09:34:55;6.57;;;1.75;;
73650;SDS011;61944;52.538;6.108;2022-12-07T09:37:21;12.13;;;2.10;;
73650;SDS011;61944;52.538;6.108;2022-12-07T09:39:46;3.53;;;1.77;;
73650;SDS011;61944;52.538;6.108;2022-12-07T09:42:18;6.50;;;1.73;;
73650;SDS011;61944;52.538;6.108;2022-12-07T09:44:51;9.23;;;2.17;;
73650;SDS011;61944;52.538;6.108;2022-12-07T09:47:17;6.07;;;2.08;;
73650;SDS011;61944;52.538;6.108;2022-12-07T09:49:42;2.42;;;1.50;;
73650;SDS011;61944;52.538;6.108;2022-12-07T09:54:33;7.95;;;1.52;;
73650;SDS011;61944;52.538;6.108;2022-12-07T09:57:03;6.10;;;1.48;;
73650;SDS011;61944;52.538;6.108;2022-12-07T09:59:29;4.40;;;1.50;;
73650;SDS011;61944;52.538;6.108;2022-12-07T10:01:55;10.35;;;2.00;;
73650;SDS011;61944;52.538;6.108;2022-12-07T10:04:26;12.77;;;1.60;;
73650;SDS011;61944;52.538;6.108;2022-12-07T10:06:52;5.00;;;1.73;;
73650;SDS011;61944;52.538;6.108;2022-12-07T10:09:21;8.23;;;2.35;;
73650;SDS011;61944;52.538;6.108;2022-12-07T10:14:35;13.23;;;2.05;;
73650;SDS011;61944;52.538;6.108;2022-12-07T10:22:59;8.15;;;1.50;;
73650;SDS011;61944;52.538;6.108;2022-12-07T10:25:36;7.72;;;1.77;;
73650;SDS011;61944;52.538;6.108;2022-12-07T10:28:13;12.68;;;3.55;;
73650;SDS011;61944;52.538;6.108;2022-12-07T10:30:48;5.72;;;1.63;;
73650;SDS011;61944;52.538;6.108;2022-12-07T10:33:27;19.70;;;2.10;;
73650;SDS011;61944;52.538;6.108;2022-12-07T10:35:53;9.90;;;2.17;;
73650;SDS011;61944;52.538;6.108;2022-12-07T10:38:18;7.05;;;2.65;;
73650;SDS011;61944;52.538;6.108;2022-12-07T10:40:44;5.65;;;2.20;;
73650;SDS011;61944;52.538;6.108;2022-12-07T10:43:16;9.23;;;1.55;;
73650;SDS011;61944;52.538;6.108;2022-12-07T10:45:55;6.57;;;2.08;;
73650;SDS011;61944;52.538;6.108;2022-12-07T10:51:31;7.10;;;2.30;;
73650;SDS011;61944;52.538;6.108;2022-12-07T10:56:48;9.30;;;2.25;;
73650;SDS011;61944;52.538;6.108;2022-12-07T11:02:37;7.05;;;1.73;;
73650;SDS011;61944;52.538;6.108;2022-12-07T11:05:28;10.27;;;1.90;;
73650;SDS011;61944;52.538;6.108;2022-12-07T11:08:30;10.00;;;3.20;;
73650;SDS011;61944;52.538;6.108;2022-12-07T11:11:13;8.73;;;2.10;;
73650;SDS011;61944;52.538;6.108;2022-12-07T11:24:55;8.35;;;1.85;;
73650;SDS011;61944;52.538;6.108;2022-12-07T11:30:14;6.95;;;1.83;;
73650;SDS011;61944;52.538;6.108;2022-12-07T11:38:17;5.32;;;2.53;;
73650;SDS011;61944;52.538;6.108;2022-12-07T11:40:48;6.85;;;2.03;;
73650;SDS011;61944;52.538;6.108;2022-12-07T11:43:28;6.28;;;1.30;;
73650;SDS011;61944;52.538;6.108;2022-12-07T11:46:04;6.55;;;1.92;;
73650;SDS011;61944;52.538;6.108;2022-12-07T11:48:41;6.25;;;1.30;;
73650;SDS011;61944;52.538;6.108;2022-12-07T11:51:22;5.65;;;1.50;;
73650;SDS011;61944;52.538;6.108;2022-12-07T11:56:22;7.72;;;1.80;;
73650;SDS011;61944;52.538;6.108;2022-12-07T12:02:13;7.10;;;2.47;;
73650;SDS011;61944;52.538;6.108;2022-12-07T12:07:14;8.05;;;2.38;;
73650;SDS011;61944;52.538;6.108;2022-12-07T12:09:50;5.03;;;1.40;;
73650;SDS011;61944;52.538;6.108;2022-12-07T12:18:05;5.30;;;1.60;;
73650;SDS011;61944;52.538;6.108;2022-12-07T12:20:37;8.68;;;1.42;;
73650;SDS011;61944;52.538;6.108;2022-12-07T12:23:15;6.00;;;1.02;;
73650;SDS011;61944;52.538;6.108;2022-12-07T12:25:54;7.05;;;1.73;;
73650;SDS011;61944;52.538;6.108;2022-12-07T12:28:34;11.20;;;1.80;;
73650;SDS011;61944;52.538;6.108;2022-12-07T12:33:46;3.78;;;1.10;;
73650;SDS011;61944;52.538;6.108;2022-12-07T12:44:38;7.63;;;1.70;;
73650;SDS011;61944;52.538;6.108;2022-12-07T12:51:43;8.35;;;2.55;;
73650;SDS011;61944;52.538;6.108;2022-12-07T12:54:18;11.30;;;3.17;;
73650;SDS011;61944;52.538;6.108;2022-12-07T12:56:51;9.47;;;2.00;;
73650;SDS011;61944;52.538;6.108;2022-12-07T13:01:49;8.65;;;1.60;;
73650;SDS011;61944;52.538;6.108;2022-12-07T13:04:26;4.30;;;1.73;;
73650;SDS011;61944;52.538;6.108;2022-12-07T13:06:55;9.50;;;2.13;;
73650;SDS011;61944;52.538;6.108;2022-12-07T13:09:24;9.07;;;1.40;;
73650;SDS011;61944;52.538;6.108;2022-12-07T13:12:00;9.02;;;1.65;;
73650;SDS011;61944;52.538;6.108;2022-12-07T13:14:35;13.15;;;2.75;;
73650;SDS011;61944;52.538;6.108;2022-12-07T13:17:10;7.22;;;1.77;;
73650;SDS011;61944;52.538;6.108;2022-12-07T13:22:27;7.15;;;1.58;;
73650;SDS011;61944;52.538;6.108;2022-12-07T13:24:57;8.23;;;2.22;;
73650;SDS011;61944;52.538;6.108;2022-12-07T13:27:25;6.55;;;1.15;;
73650;SDS011;61944;52.538;6.108;2022-12-07T13:29:50;4.15;;;1.23;;
73650;SDS011;61944;52.538;6.108;2022-12-07T13:32:28;6.45;;;1.48;;
73650;SDS011;61944;52.538;6.108;2022-12-07T13:34:55;8.32;;;1.63;;
73650;SDS011;61944;52.538;6.108;2022-12-07T13:37:27;7.53;;;1.42;;
73650;SDS011;61944;52.538;6.108;2022-12-07T13:42:29;6.70;;;2.22;;
73650;SDS011;61944;52.538;6.108;2022-12-07T13:44:59;12.63;;;2.25;;
73650;SDS011;61944;52.538;6.108;2022-12-07T13:47:31;7.80;;;1.48;;
73650;SDS011;61944;52.538;6.108;2022-12-07T13:50:21;8.80;;;1.40;;
73650;SDS011;61944;52.538;6.108;2022-12-07T13:52:55;4.80;;;1.58;;
73650;SDS011;61944;52.538;6.108;2022-12-07T13:55:21;3.22;;;1.35;;
73650;SDS011;61944;52.538;6.108;2022-12-07T13:57:50;8.77;;;1.67;;
73650;SDS011;61944;52.538;6.108;2022-12-07T14:00:18;8.02;;;1.88;;
73650;SDS011;61944;52.538;6.108;2022-12-07T14:02:58;3.95;;;1.00;;
73650;SDS011;61944;52.538;6.108;2022-12-07T14:05:27;8.23;;;1.63;;
73650;SDS011;61944;52.538;6.108;2022-12-07T14:15:59;9.20;;;1.20;;
73650;SDS011;61944;52.538;6.108;2022-12-07T14:18:29;5.03;;;1.15;;
73650;SDS011;61944;52.538;6.108;2022-12-07T14:21:05;5.97;;;1.27;;
73650;SDS011;61944;52.538;6.108;2022-12-07T14:23:42;2.03;;;0.93;;
73650;SDS011;61944;52.538;6.108;2022-12-07T14:26:15;4.22;;;1.60;;
73650;SDS011;61944;52.538;6.108;2022-12-07T14:28:45;2.88;;;1.05;;
73650;SDS011;61944;52.538;6.108;2022-12-07T14:31:13;7.28;;;1.10;;
73650;SDS011;61944;52.538;6.108;2022-12-07T14:33:41;4.60;;;2.20;;
73650;SDS011;61944;52.538;6.108;2022-12-07T14:36:13;9.25;;;1.63;;
73650;SDS011;61944;52.538;6.108;2022-12-07T14:38:39;6.93;;;1.80;;
73650;SDS011;61944;52.538;6.108;2022-12-07T14:41:06;3.30;;;1.75;;
73650;SDS011;61944;52.538;6.108;2022-12-07T14:43:57;5.90;;;1.83;;
73650;SDS011;61944;52.538;6.108;2022-12-07T14:46:22;9.15;;;1.80;;
73650;SDS011;61944;52.538;6.108;2022-12-07T14:48:47;6.75;;;1.58;;
73650;SDS011;61944;52.538;6.108;2022-12-07T14:51:13;5.35;;;1.08;;
73650;SDS011;61944;52.538;6.108;2022-12-07T14:53:42;4.82;;;1.38;;
73650;SDS011;61944;52.538;6.108;2022-12-07T14:56:12;3.67;;;1.30;;
73650;SDS011;61944;52.538;6.108;2022-12-07T14:58:38;12.02;;;2.08;;
73650;SDS011;61944;52.538;6.108;2022-12-07T15:01:05;8.05;;;1.73;;
73650;SDS011;61944;52.538;6.108;2022-12-07T15:03:30;9.98;;;1.55;;
73650;SDS011;61944;52.538;6.108;2022-12-07T15:05:55;3.75;;;0.85;;
73650;SDS011;61944;52.538;6.108;2022-12-07T15:08:21;3.17;;;1.10;;
73650;SDS011;61944;52.538;6.108;2022-12-07T15:10:46;4.05;;;1.70;;
73650;SDS011;61944;52.538;6.108;2022-12-07T15:13:12;7.40;;;1.58;;
73650;SDS011;61944;52.538;6.108;2022-12-07T15:15:56;6.30;;;2.85;;
73650;SDS011;61944;52.538;6.108;2022-12-07T15:18:22;3.35;;;1.33;;
73650;SDS011;61944;52.538;6.108;2022-12-07T15:20:48;4.88;;;1.63;;
73650;SDS011;61944;52.538;6.108;2022-12-07T15:23:14;7.55;;;1.75;;
73650;SDS011;61944;52.538;6.108;2022-12-07T15:25:40;6.75;;;1.83;;
73650;SDS011;61944;52.538;6.108;2022-12-07T15:28:06;8.70;;;2.47;;
73650;SDS011;61944;52.538;6.108;2022-12-07T15:30:31;7.65;;;1.63;;
73650;SDS011;61944;52.538;6.108;2022-12-07T15:32:57;10.60;;;1.83;;
73650;SDS011;61944;52.538;6.108;2022-12-07T15:35:22;4.50;;;2.17;;
73650;SDS011;61944;52.538;6.108;2022-12-07T15:37:47;12.43;;;2.08;;
73650;SDS011;61944;52.538;6.108;2022-12-07T15:40:13;5.57;;;2.40;;
73650;SDS011;61944;52.538;6.108;2022-12-07T15:42:38;8.48;;;2.00;;
73650;SDS011;61944;52.538;6.108;2022-12-07T15:45:05;5.43;;;2.08;;
73650;SDS011;61944;52.538;6.108;2022-12-07T15:47:36;9.50;;;2.75;;
73650;SDS011;61944;52.538;6.108;2022-12-07T15:50:04;8.65;;;3.22;;
73650;SDS011;61944;52.538;6.108;2022-12-07T15:52:31;12.48;;;2.72;;
73650;SDS011;61944;52.538;6.108;2022-12-07T15:54:57;5.70;;;2.35;;
73650;SDS011;61944;52.538;6.108;2022-12-07T15:57:22;12.10;;;2.72;;
73650;SDS011;61944;52.538;6.108;2022-12-07T15:59:48;11.15;;;2.53;;
73650;SDS011;61944;52.538;6.108;2022-12-07T16:02:13;6.78;;;2.45;;
73650;SDS011;61944;52.538;6.108;2022-12-07T16:04:38;11.30;;;3.22;;
73650;SDS011;61944;52.538;6.108;2022-12-07T16:07:04;7.80;;;2.22;;
73650;SDS011;61944;52.538;6.108;2022-12-07T16:09:30;15.75;;;3.05;;
73650;SDS011;61944;52.538;6.108;2022-12-07T16:11:55;11.25;;;2.40;;
73650;SDS011;61944;52.538;6.108;2022-12-07T16:14:21;8.38;;;2.42;;
73650;SDS011;61944;52.538;6.108;2022-12-07T16:16:46;3.55;;;1.90;;
73650;SDS011;61944;52.538;6.108;2022-12-07T16:19:12;8.80;;;2.97;;
73650;SDS011;61944;52.538;6.108;2022-12-07T16:21:38;6.00;;;2.90;;
73650;SDS011;61944;52.538;6.108;2022-12-07T16:24:04;8.10;;;1.75;;
73650;SDS011;61944;52.538;6.108;2022-12-07T16:26:30;5.35;;;2.20;;
73650;SDS011;61944;52.538;6.108;2022-12-07T16:28:56;5.55;;;1.95;;
73650;SDS011;61944;52.538;6.108;2022-12-07T16:31:23;10.20;;;2.08;;
73650;SDS011;61944;52.538;6.108;2022-12-07T16:33:50;10.18;;;2.38;;
73650;SDS011;61944;52.538;6.108;2022-12-07T16:36:19;5.43;;;2.15;;
73650;SDS011;61944;52.538;6.108;2022-12-07T16:38:46;5.75;;;1.23;;
73650;SDS011;61944;52.538;6.108;2022-12-07T16:41:11;3.10;;;1.88;;
73650;SDS011;61944;52.538;6.108;2022-12-07T16:43:37;2.83;;;1.13;;
73650;SDS011;61944;52.538;6.108;2022-12-07T16:46:03;2.83;;;1.15;;
73650;SDS011;61944;52.538;6.108;2022-12-07T16:48:29;2.85;;;1.23;;
73650;SDS011;61944;52.538;6.108;2022-12-07T16:50:54;3.03;;;1.10;;
73650;SDS011;61944;52.538;6.108;2022-12-07T16:53:21;1.90;;;0.98;;
73650;SDS011;61944;52.538;6.108;2022-12-07T16:55:48;3.45;;;1.17;;
73650;SDS011;61944;52.538;6.108;2022-12-07T16:58:14;7.32;;;1.35;;
73650;SDS011;61944;52.538;6.108;2022-12-07T17:00:41;3.25;;;1.35;;
73650;SDS011;61944;52.538;6.108;2022-12-07T17:03:07;3.60;;;1.38;;
73650;SDS011;61944;52.538;6.108;2022-12-07T17:05:33;5.85;;;1.45;;
73650;SDS011;61944;52.538;6.108;2022-12-07T17:08:02;3.78;;;2.28;;
73650;SDS011;61944;52.538;6.108;2022-12-07T17:10:28;6.80;;;1.52;;
73650;SDS011;61944;52.538;6.108;2022-12-07T17:12:53;3.15;;;1.42;;
73650;SDS011;61944;52.538;6.108;2022-12-07T17:15:18;3.33;;;1.60;;
73650;SDS011;61944;52.538;6.108;2022-12-07T17:17:50;2.25;;;1.40;;
73650;SDS011;61944;52.538;6.108;2022-12-07T17:20:18;7.88;;;2.25;;
73650;SDS011;61944;52.538;6.108;2022-12-07T17:22:44;5.57;;;1.60;;
73650;SDS011;61944;52.538;6.108;2022-12-07T17:25:09;2.60;;;1.52;;
73650;SDS011;61944;52.538;6.108;2022-12-07T17:27:35;4.18;;;1.42;;
73650;SDS011;61944;52.538;6.108;2022-12-07T17:30:02;8.32;;;2.15;;
73650;SDS011;61944;52.538;6.108;2022-12-07T17:32:29;4.78;;;2.00;;
73650;SDS011;61944;52.538;6.108;2022-12-07T17:34:54;3.42;;;2.00;;
73650;SDS011;61944;52.538;6.108;2022-12-07T17:37:19;4.30;;;2.05;;
73650;SDS011;61944;52.538;6.108;2022-12-07T17:39:45;5.65;;;2.10;;
73650;SDS011;61944;52.538;6.108;2022-12-07T17:42:10;6.75;;;2.50;;
73650;SDS011;61944;52.538;6.108;2022-12-07T17:44:54;6.43;;;2.50;;
73650;SDS011;61944;52.538;6.108;2022-12-07T17:47:19;3.53;;;2.47;;
73650;SDS011;61944;52.538;6.108;2022-12-07T17:49:46;6.60;;;2.33;;
73650;SDS011;61944;52.538;6.108;2022-12-07T17:52:12;4.75;;;2.30;;
73650;SDS011;61944;52.538;6.108;2022-12-07T17:54:56;4.15;;;2.53;;
73650;SDS011;61944;52.538;6.108;2022-12-07T17:57:22;5.25;;;2.50;;
73650;SDS011;61944;52.538;6.108;2022-12-07T17:59:47;11.32;;;3.65;;
73650;SDS011;61944;52.538;6.108;2022-12-07T18:02:15;6.43;;;2.58;;
73650;SDS011;61944;52.538;6.108;2022-12-07T18:04:40;5.57;;;3.15;;
73650;SDS011;61944;52.538;6.108;2022-12-07T18:07:06;8.88;;;3.58;;
73650;SDS011;61944;52.538;6.108;2022-12-07T18:09:33;9.93;;;3.47;;
73650;SDS011;61944;52.538;6.108;2022-12-07T18:11:58;12.57;;;3.90;;
73650;SDS011;61944;52.538;6.108;2022-12-07T18:14:23;8.63;;;3.10;;
73650;SDS011;61944;52.538;6.108;2022-12-07T18:16:49;6.35;;;3.03;;
73650;SDS011;61944;52.538;6.108;2022-12-07T18:19:14;6.93;;;3.13;;
73650;SDS011;61944;52.538;6.108;2022-12-07T18:21:42;6.30;;;2.60;;
73650;SDS011;61944;52.538;6.108;2022-12-07T18:24:09;6.95;;;3.78;;
73650;SDS011;61944;52.538;6.108;2022-12-07T18:26:36;8.68;;;3.40;;
73650;SDS011;61944;52.538;6.108;2022-12-07T18:29:02;15.98;;;4.28;;
73650;SDS011;61944;52.538;6.108;2022-12-07T18:31:30;5.82;;;3.15;;
73650;SDS011;61944;52.538;6.108;2022-12-07T18:33:59;14.07;;;5.78;;
73650;SDS011;61944;52.538;6.108;2022-12-07T18:36:25;13.50;;;5.55;;
73650;SDS011;61944;52.538;6.108;2022-12-07T18:38:50;15.25;;;4.80;;
73650;SDS011;61944;52.538;6.108;2022-12-07T18:41:16;7.13;;;3.38;;
73650;SDS011;61944;52.538;6.108;2022-12-07T18:43:42;14.50;;;3.85;;
73650;SDS011;61944;52.538;6.108;2022-12-07T18:46:08;8.27;;;3.78;;
73650;SDS011;61944;52.538;6.108;2022-12-07T18:48:38;6.50;;;3.50;;
73650;SDS011;61944;52.538;6.108;2022-12-07T18:51:04;8.00;;;3.00;;
73650;SDS011;61944;52.538;6.108;2022-12-07T18:53:30;7.28;;;3.45;;
73650;SDS011;61944;52.538;6.108;2022-12-07T18:56:00;7.47;;;3.30;;
73650;SDS011;61944;52.538;6.108;2022-12-07T18:58:26;14.68;;;4.72;;
73650;SDS011;61944;52.538;6.108;2022-12-07T19:00:53;10.65;;;4.07;;
73650;SDS011;61944;52.538;6.108;2022-12-07T19:03:19;12.70;;;4.40;;
73650;SDS011;61944;52.538;6.108;2022-12-07T19:05:45;6.15;;;3.75;;
73650;SDS011;61944;52.538;6.108;2022-12-07T19:08:10;10.70;;;3.58;;
73650;SDS011;61944;52.538;6.108;2022-12-07T19:10:35;11.75;;;4.00;;
73650;SDS011;61944;52.538;6.108;2022-12-07T19:13:01;6.38;;;3.05;;
73650;SDS011;61944;52.538;6.108;2022-12-07T19:15:26;7.22;;;2.92;;
73650;SDS011;61944;52.538;6.108;2022-12-07T19:17:51;8.05;;;3.10;;
73650;SDS011;61944;52.538;6.108;2022-12-07T19:20:17;7.70;;;2.88;;
73650;SDS011;61944;52.538;6.108;2022-12-07T19:22:42;6.97;;;3.50;;
73650;SDS011;61944;52.538;6.108;2022-12-07T19:25:07;10.95;;;3.22;;
73650;SDS011;61944;52.538;6.108;2022-12-07T19:27:33;4.45;;;2.35;;
73650;SDS011;61944;52.538;6.108;2022-12-07T19:29:58;6.22;;;2.90;;
73650;SDS011;61944;52.538;6.108;2022-12-07T19:32:24;8.43;;;2.22;;
73650;SDS011;61944;52.538;6.108;2022-12-07T19:34:51;6.18;;;2.38;;
73650;SDS011;61944;52.538;6.108;2022-12-07T19:37:18;7.47;;;2.50;;
73650;SDS011;61944;52.538;6.108;2022-12-07T19:39:43;11.38;;;2.63;;
73650;SDS011;61944;52.538;6.108;2022-12-07T19:42:10;11.32;;;2.42;;
73650;SDS011;61944;52.538;6.108;2022-12-07T19:44:36;7.22;;;2.65;;
73650;SDS011;61944;52.538;6.108;2022-12-07T19:47:02;6.70;;;2.33;;
73650;SDS011;61944;52.538;6.108;2022-12-07T19:49:28;8.07;;;2.72;;
73650;SDS011;61944;52.538;6.108;2022-12-07T19:51:56;10.90;;;4.07;;
73650;SDS011;61944;52.538;6.108;2022-12-07T19:54:25;11.45;;;3.78;;
73650;SDS011;61944;52.538;6.108;2022-12-07T19:56:52;11.93;;;3.15;;
73650;SDS011;61944;52.538;6.108;2022-12-07T19:59:18;7.07;;;2.97;;
73650;SDS011;61944;52.538;6.108;2022-12-07T20:01:45;7.35;;;3.10;;
73650;SDS011;61944;52.538;6.108;2022-12-07T20:04:12;8.43;;;3.53;;
73650;SDS011;61944;52.538;6.108;2022-12-07T20:06:43;13.70;;;3.38;;
73650;SDS011;61944;52.538;6.108;2022-12-07T20:09:09;10.07;;;4.05;;
73650;SDS011;61944;52.538;6.108;2022-12-07T20:11:34;10.27;;;3.30;;
73650;SDS011;61944;52.538;6.108;2022-12-07T20:14:19;10.75;;;3.30;;
73650;SDS011;61944;52.538;6.108;2022-12-07T20:16:44;7.70;;;2.70;;
73650;SDS011;61944;52.538;6.108;2022-12-07T20:19:10;11.13;;;2.90;;
73650;SDS011;61944;52.538;6.108;2022-12-07T20:21:37;8.60;;;3.67;;
73650;SDS011;61944;52.538;6.108;2022-12-07T20:24:03;9.77;;;3.33;;
73650;SDS011;61944;52.538;6.108;2022-12-07T20:26:29;11.90;;;3.53;;
73650;SDS011;61944;52.538;6.108;2022-12-07T20:28:55;6.80;;;3.20;;
73650;SDS011;61944;52.538;6.108;2022-12-07T20:31:21;15.40;;;3.83;;
73650;SDS011;61944;52.538;6.108;2022-12-07T20:33:46;9.10;;;3.47;;
73650;SDS011;61944;52.538;6.108;2022-12-07T20:36:16;9.63;;;3.25;;
73650;SDS011;61944;52.538;6.108;2022-12-07T20:38:43;9.98;;;3.40;;
73650;SDS011;61944;52.538;6.108;2022-12-07T20:41:10;7.95;;;3.20;;
73650;SDS011;61944;52.538;6.108;2022-12-07T20:43:56;11.95;;;4.13;;
73650;SDS011;61944;52.538;6.108;2022-12-07T20:46:22;6.93;;;3.78;;
73650;SDS011;61944;52.538;6.108;2022-12-07T20:48:48;10.25;;;3.92;;
73650;SDS011;61944;52.538;6.108;2022-12-07T20:51:13;7.93;;;2.80;;
73650;SDS011;61944;52.538;6.108;2022-12-07T20:53:38;6.82;;;4.07;;
73650;SDS011;61944;52.538;6.108;2022-12-07T20:56:04;4.78;;;2.38;;
73650;SDS011;61944;52.538;6.108;2022-12-07T20:58:30;7.72;;;2.83;;
73650;SDS011;61944;52.538;6.108;2022-12-07T21:00:59;9.20;;;2.50;;
73650;SDS011;61944;52.538;6.108;2022-12-07T21:03:25;7.78;;;2.50;;
73650;SDS011;61944;52.538;6.108;2022-12-07T21:05:51;9.68;;;2.75;;
73650;SDS011;61944;52.538;6.108;2022-12-07T21:08:16;22.17;;;2.80;;
73650;SDS011;61944;52.538;6.108;2022-12-07T21:10:42;9.05;;;2.83;;
73650;SDS011;61944;52.538;6.108;2022-12-07T21:13:07;10.02;;;2.13;;
73650;SDS011;61944;52.538;6.108;2022-12-07T21:15:32;10.23;;;2.40;;
73650;SDS011;61944;52.538;6.108;2022-12-07T21:17:58;7.78;;;2.05;;
73650;SDS011;61944;52.538;6.108;2022-12-07T21:20:23;6.90;;;1.73;;
73650;SDS011;61944;52.538;6.108;2022-12-07T21:22:48;8.18;;;2.10;;
73650;SDS011;61944;52.538;6.108;2022-12-07T21:25:14;6.45;;;1.75;;
73650;SDS011;61944;52.538;6.108;2022-12-07T21:27:39;8.63;;;2.40;;
73650;SDS011;61944;52.538;6.108;2022-12-07T21:30:05;8.02;;;2.30;;
73650;SDS011;61944;52.538;6.108;2022-12-07T21:32:30;3.90;;;2.20;;
73650;SDS011;61944;52.538;6.108;2022-12-07T21:34:56;7.95;;;2.30;;
73650;SDS011;61944;52.538;6.108;2022-12-07T21:37:21;6.93;;;1.90;;
73650;SDS011;61944;52.538;6.108;2022-12-07T21:39:46;4.90;;;1.60;;
73650;SDS011;61944;52.538;6.108;2022-12-07T21:42:12;5.53;;;1.67;;
73650;SDS011;61944;52.538;6.108;2022-12-07T21:44:37;7.38;;;2.03;;
73650;SDS011;61944;52.538;6.108;2022-12-07T21:47:02;9.52;;;1.58;;
73650;SDS011;61944;52.538;6.108;2022-12-07T21:49:28;7.80;;;1.75;;
73650;SDS011;61944;52.538;6.108;2022-12-07T21:51:54;2.80;;;1.20;;
73650;SDS011;61944;52.538;6.108;2022-12-07T21:54:19;8.38;;;2.30;;
73650;SDS011;61944;52.538;6.108;2022-12-07T21:56:44;8.07;;;2.72;;
73650;SDS011;61944;52.538;6.108;2022-12-07T21:59:11;4.50;;;1.30;;
73650;SDS011;61944;52.538;6.108;2022-12-07T22:01:39;6.78;;;1.83;;
73650;SDS011;61944;52.538;6.108;2022-12-07T22:04:06;15.93;;;3.60;;
73650;SDS011;61944;52.538;6.108;2022-12-07T22:06:34;3.30;;;1.42;;
73650;SDS011;61944;52.538;6.108;2022-12-07T22:09:01;8.18;;;2.45;;
73650;SDS011;61944;52.538;6.108;2022-12-07T22:11:27;3.53;;;1.60;;
73650;SDS011;61944;52.538;6.108;2022-12-07T22:13:52;4.75;;;1.67;;
73650;SDS011;61944;52.538;6.108;2022-12-07T22:16:37;4.20;;;1.50;;
73650;SDS011;61944;52.538;6.108;2022-12-07T22:19:02;4.07;;;1.40;;
73650;SDS011;61944;52.538;6.108;2022-12-07T22:21:28;7.45;;;1.50;;